Racecast

Collin Balla

Temperance Bedford (MI) · 12 · SECMI D1MONROE · Compare head to head

Athlete rating 120.0 2022 TF season
Best race 149.8 XC
Races 120
Seasons 8 2015 — 2022

RankedNation #12574·MI #507·MI D1 #326·SEC #48·Team #11 ?

Rating scale ?

Cross Country

2021 XC 123.4

Temperance Bedford (MI) · Grade 12

Date Meet Event Result Place Rating Difficulty PR/SR Flags
2021-10-30 Lake Erie Metro Park OFFICIAL 5000m 18:33 24th · 2nd on team 121.7 +0.055
2021-10-21 Hudson Mills Metropark - OFFICIAL 5000m 17:00.6 15th · 2nd on team 131.7 +0.036 SR CSR RSR
2021-10-16 Munson Park 5000m 19:22.8 13th · 2nd on team 117.2 +0.054
2021-10-02 Lake Erie Metro Park OFFICIAL 5000m 17:15.9 7th · 2nd on team 131.6 +0.055 SR CSR RSR
2021-09-28 Munson Park 5000m 17:49.1 26th · 2nd on team 127.8 +0.054 ★CR CSR RSR
2021-09-25 Ella Sharp Park OFFICIAL 5000m 18:00.7 89th · 2nd on team 124.7 +0.038 CSR RSR
2021-09-11 Hedges Boyer Park 5000m 17:46.6 20th · 2nd on team 117.3 -0.036 CSR
2021-09-04 BGSU 5000m 17:39.1 28th · 2nd on team 117.1 -0.038 ★CR CSR
2021-08-28 Walsh Park 5000m 17:37.4 10th · 2nd on team 121.8 -0.009 ★CR SR CSR RSR

2020 XC 128.2

Temperance Bedford (MI) · Grade 11

Date Meet Event Result Place Rating Difficulty PR/SR Flags
2020-10-31 Lake Erie Metro Park OFFICIAL 5000m 17:39.2 25th · 2nd on team 128.1 +0.055 CSR
2020-10-24 Indian Creek OFFICIAL 5000m 16:58.2 10th · 1st on team 131.6 +0.039 ★CR SR CSR
2020-10-17 Indian Creek OFFICIAL 5000m 17:32.8 30th · 3rd on team 126.6 +0.039
2020-10-10 Howell High School 5000m 17:39 28th · 3rd on team 131.0 +0.065 ★CR CSR
2020-10-03 Indian Creek OFFICIAL 5000m 17:25.4 6th · 3rd on team 127.3 +0.039
2020-09-26 Indian Creek OFFICIAL 5000m 17:08.3 6th · 1st on team 132.3 +0.039 RSR
2020-09-19 Indian Creek OFFICIAL 5000m 17:03 1st · 1st on team 129.9 +0.039 CR SR CSR RSR
2020-09-12 Whiteford Valley Golf Club 5000m 17:07.2 2nd · 2nd on team 123.3 -0.023 ★CR SR CSR
2020-08-29 Indian Creek OFFICIAL 5000m 17:53 3rd · 2nd on team 125.2 +0.039
2020-08-22 Indian Creek OFFICIAL 5000m 17:46 3rd · 2nd on team 127.0 +0.039 SR CSR RSR

2019 XC 126.8

Temperance Bedford (MI) · Grade 10

Date Meet Event Result Place Rating Difficulty PR/SR Flags
2019-10-26 Lake Erie Metro Park OFFICIAL 5000m 17:05.8 22nd · 1st on team 131.3 +0.055 ★CR CSR
2019-10-17 Hudson Mills Metropark - OFFICIAL 5000m 16:59.7 19th · 1st on team 129.8 +0.036 ★CR CSR
2019-10-12 Munson Park 5000m 18:12.2 4th · 2nd on team 123.3 +0.054 CSR
2019-10-05 Portage West MS 5000m 16:39.2 60th · 1st on team 132.1 +0.038 ★PR ★CR SR CSR RSR
2019-09-28 Lake Erie Metro Park OFFICIAL 5000m 17:21 11th · 1st on team 128.6 +0.055 CR CSR
2019-09-24 Indian Creek OFFICIAL 5000m 17:14 18th · 1st on team 129.4 +0.039 PR CR SR CSR RSR
2019-09-21 Ella Sharp Park OFFICIAL 5000m 17:45.6 99th · 2nd on team 124.7 +0.038 ★CR CSR RSR
2019-09-10 Hudson Mills Metropark - OFFICIAL 5000m 17:46.6 32nd · 1st on team 123.5 +0.036 CSR RSR
2019-09-07 Hedges Boyer Park 5000m 17:20.7 94th · 1st on team 118.4 -0.036 PR ★CR SR CSR RSR

2018 XC 124.2

Temperance Bedford (MI) · Grade 9

Date Meet Event Result Place Rating Difficulty PR/SR Flags
2018-11-03 Michigan International Speedway (MIS) 5000m 17:35.7 191st · 3rd on team 124.5 +0.022 ★CR CSR
2018-10-27 Lake Erie Metro Park OFFICIAL 5000m 17:36.7 30th · 3rd on team 127.5 +0.055 CR CSR RSR
2018-10-18 Hudson Mills Metropark - OFFICIAL 5000m 17:22.5 30th · 3rd on team 126.5 +0.036 PR CR SR CSR RSR
2018-10-13 Munson Park 5000m 18:00.2 3rd · 2nd on team 124.0 +0.054 CR CSR
2018-10-09 Indian Creek OFFICIAL 5000m 18:05 8th · 4th on team 124.4 +0.039 CR CSR
2018-10-06 Portage West MS 5000m 17:39.9 110th · 4th on team 125.4 +0.038 PR CR SR CSR
2018-09-29 Lake Erie Metro Park OFFICIAL 5000m 17:50.5 26th · 4th on team 125.8 +0.055 PR CR SR CSR RSR
2018-09-25 Cass Benton Park OFFICIAL 5000m 18:26.5 39th · 3rd on team 125.6 +0.091 ★CR CSR RSR
2018-09-22 Ella Sharp Park OFFICIAL 5000m 17:52.7 118th · 4th on team 122.5 +0.038 PR CR SR CSR RSR
2018-09-06 Willow Metropark OFFICIAL 5000m 18:25.5 75th · 7th on team 120.2 +0.048 PR ★CR SR CSR RSR
2018-08-31 Oakland University 4000m 14:49.1 86th · 7th on team 119.2 +0.054 ★PR ★CR SR CSR RSR

2017 XC 137.9

Temperance Bedford (MI) · Grade 8

Date Meet Event Result Place Rating Difficulty PR/SR Flags
2017-10-21 Hudson Mills Metropark - OFFICIAL 3000m 11:38.6 6th · 2nd on team 131.7 +0.001 ★PR ★CR SR CSR
2017-10-11 Huron Meadows Metropark OFFICIAL 3200m 11:25.2 2nd · 2nd on team 149.0 +0.031 ★PR ★CR SR CSR
2017-09-30 Lake Erie Metro Park OFFICIAL 3218m 11:30.1 1st · 1st on team 146.3 +0.034 ★CR CSR
2017-09-28 Hudson Mills Metropark - OFFICIAL 3218m 11:28.2 1st · 1st on team 149.8 +0.062 ★PR ★CR ★R SR CSR RSR
2017-09-23 Maumee Bay State Park 3200m 11:59.8 5th · 1st on team 133.4 -0.033 ★CR CSR
2017-09-13 Indian Creek OFFICIAL 3200m 11:52.3 3rd · 2nd on team 142.2 +0.038 PR ★CR SR CSR RSR
2017-09-09 Hedges Boyer Park 3200m 11:58.8 14th · 2nd on team 124.4 -0.089 PR ★CR SR CSR
2017-08-31 Eastwood HS 3200m 12:05.3 7th · 2nd on team 126.3 -0.060 PR ★CR SR CSR RSR

2016 XC 130.6

Temperance Bedford (MI) · Grade 7

Date Meet Event Result Place Rating Difficulty PR/SR Flags
2016-10-15 Munson Park 3200m 12:18 8th · 5th on team 137.8 +0.034 PR ★CR SR CSR
2016-10-12 Heritage Park (Adrian) OFFICIAL 3218m 12:23.5 10th · 4th on team 138.3 +0.046 ★CR CSR
2016-10-08 Monroe County Comm College 3218m 12:15.3 7th · 4th on team 134.6 +0.007 ★CR CSR
2016-10-01 Pearson's Metro Park 3000m 12:25.6 15th · 3rd on team 122.7 ★CR CSR
2016-09-28 Hudson Mills Metropark - OFFICIAL 3218m 12:13.7 12th · 4th on team 142.6 +0.062 PR CR R SR CSR RSR
2016-09-24 Maumee Bay State Park 3218m 12:25.1 26th · 3rd on team 127.3 -0.033 PR ★CR SR CSR
2016-09-14 Rolling Hills 3000m 11:41.4 9th · 4th on team 139.4 +0.071 PR ★CR R SR CSR RSR
2016-09-10 Hedges Boyer Park 3200m 13:28 13th · 6th on team 111.3 -0.089 CR CSR
2016-09-01 Eastwood HS 3200m 12:45.1 33rd · 4th on team 121.0 -0.060 PR CR SR CSR RSR

2015 XC 133.8

Temperance Bedford (MI) · Grade 6

Date Meet Event Result Place Rating Difficulty PR/SR Flags
2015-10-24 Hudson Mills Metropark - OFFICIAL 2000m 7:28.5 16th · 2nd on team 136.4 +0.016 ★PR ★CR R SR CSR RSR
2015-10-17 Munson Park 2000m 7:57.7 5th · 2nd on team 134.4 +0.073
2015-10-14 Munson Park 2000m 7:50 3rd · 2nd on team 135.4 +0.073 PR ★CR R SR CSR RSR
2015-09-26 Sterling State Park 1850m +0.113 ★PR ★CR SR CSR
2015-09-16 Mill Pond Park 2414m 10:35.7 5th · 2nd on team 129.3 +0.127 ★PR ★CR R SR CSR RSR

Track & Field

2022 TF 115.8

Temperance Bedford (MI) · Grade 12

Date Meet Event Result Place Rating Difficulty PR/SR Flags
2022-06-04 2022 MHSAA LP D1 State T&F Championships 400m 50.63 14th · 1st on team -0.034
2022-05-31 Larry Steeb Meet of Champions 400m 50.59 3rd · 1st on team -0.036
2022-05-20 MHSAA LP Region 04-1 @ Saline 400m 50.18 1st · 1st on team -0.042 ★PR SR
2022-05-13 SEC-HS: Red Division Championship 800m 2:06.84 12th · 1st on team 120.3 -0.032
2022-05-04 SEC-HS: Skyline at Bedford hj 5'04.00 -0.033
2022-04-29 St. Francis Knight Relays 800m 2:06.69 4th · 1st on team 118.8 -0.043
2022-04-26 SEC-HS: Bedford & Monroe at Dexter lj 18-00.00 -0.036
2022-04-26 SEC-HS: Bedford & Monroe at Dexter 3200m 10:42.79 2nd · 1st on team 114.3 -0.036 ★PR SR
2022-04-23 Warrior Classic 800m 2:09.56 5th · 1st on team 117.5 -0.029
2022-04-21 SEC-HS: Saline & Bedford at Huron hj 5'04.00 -0.034
2022-04-21 SEC-HS: Saline & Bedford at Huron 800m 2:06.11 1st · 1st on team 121.1 -0.034 SR RSR
2022-04-14 Springfield Invitational 800m 2:21.04 5th · 1st on team 109.1 -0.029 SR RSR
2022-04-14 Springfield Invitational 1600m 5:12.7 3rd · 2nd on team 109.7 -0.029 SR RSR
2022-04-12 SEC-HS: Lincoln & Pioneer at Bedford hj 5'06.00 -0.034
2022-04-12 SEC-HS: Lincoln & Pioneer at Bedford 400m 53.42 1st · 1st on team -0.034
2022-04-08 Whitmer Gold W Invitational hj 5-03.00 -0.040
2022-04-08 Whitmer Gold W Invitational 400m 53.41 2nd · 1st on team -0.040 PR SR
2022-04-05 Bedford @ Whitmer Dual hj 5-06.00 -0.040
2022-04-05 Bedford @ Whitmer Dual 400m 53.59 1st · 1st on team -0.040 PR SR
2022-03-24 '22 SEC Conference Invite hj 5-04.00 -0.035

2021 TF 116.7

Temperance Bedford (MI) · Grade 11

Date Meet Event Result Place Rating Difficulty PR/SR Flags
2021-05-14 SEC-HS: Championship (Red) 800m 2:05.97 9th · 1st on team 121.0 -0.033
2021-05-11 SEC-HS: Bedford & Ypsi vs Skyline (@Lincoln) hj 5'04.01 -0.032
2021-05-11 SEC-HS: Bedford & Ypsi vs Skyline (@Lincoln) 800m 2:04.96 1st · 1st on team 122.9 -0.032 ★PR SR RSR
2021-05-07 Clay Eagle Invite hj 5-06.00 -0.039
2021-05-07 Clay Eagle Invite 800m 2:05.55 3rd · 1st on team 120.7 -0.039 PR SR RSR
2021-05-04 SEC-HS: Bedford at Monroe hj 5-06.00 -0.032
2021-05-04 SEC-HS: Bedford at Monroe 800m 2:10.1 1st · 1st on team 117.5 -0.032 PR SR RSR
2021-04-27 SEC-HS: Bedford at AA Pioneer hj 5'06.00 -0.028
2021-04-27 SEC-HS: Bedford at AA Pioneer 400m 54.29 1st · 1st on team -0.028 PR SR
2021-04-24 Warrior Classic 800m 2:13.04 3rd · 1st on team 115.3 -0.029
2021-04-22 SEC-HS: AA Huron, Saline at Bedford hj 5'06.00 -0.034
2021-04-22 SEC-HS: AA Huron, Saline at Bedford 800m 2:10.59 5th · 1st on team 117.3 -0.034 PR SR RSR
2021-04-15 Springfield (Holland) Invitational 1600m 5:01.69 5th · 2nd on team 114.0 -0.029 SR RSR
2021-04-15 Springfield (Holland) Invitational 800m 2:11.82 1st · 1st on team 117.1 -0.029 PR SR RSR
2021-03-30 Bedford at Whitmer 800m 2:16.1 1st · 1st on team 111.9 -0.040 SR RSR
2021-03-26 SEC Conference Invite 1600m 5:11.32 11th · 1st on team 109.3 -0.035 SR RSR

2019 TF 112.6

Temperance Bedford (MI) · Grade 9

Date Meet Event Result Place Rating Difficulty PR/SR Flags
2019-05-23 Freshman Beck Invitational hj 5'6" -0.022
2019-05-23 Freshman Beck Invitational 1600m 4:51 1st · 1st on team 119.7 -0.022 ★PR SR RSR
2019-05-17 MHSAA LP Region 04-1 @ Saline 1600m 4:54.58 25th · 2nd on team 114.8 -0.042
2019-05-10 SEC Red Divisional Championship Meet 1600m 5:08.04 21st · 3rd on team 111.6 -0.032
2019-04-25 Knight Classic Freshman Invitational lj 17-01.25 -0.043
2019-04-25 Knight Classic Freshman Invitational 1600m 4:54.54 1st · 1st on team 114.8 -0.043
2019-04-23 SEC Red Division - Bedford vs Saline hj 5-00.00 -0.033
2019-04-23 SEC Red Division - Bedford vs Saline 800m 2:15.76 11th · 2nd on team 113.1 -0.033 PR SR RSR
2019-04-23 SEC Red Division - Bedford vs Saline 1600m 4:54.45 10th · 3rd on team 117.2 -0.033 PR SR RSR
2019-04-11 Titan Freshman Invitational hj 4'8" -0.042
2019-04-11 Titan Freshman Invitational 1600m 5:08.05 1st · 1st on team 111.0 -0.042 PR SR
2019-04-09 SEC-R: Bedford @ Pioneer hj 5'00.00 -0.028
2019-04-09 SEC-R: Bedford @ Pioneer 1600m 5:15.52 9th · 4th on team 109.4 -0.028
2019-04-09 SEC-R: Bedford @ Pioneer 100m 13.01 14th · 5th on team -0.028 ★PR SR
2019-04-09 SEC-R: Bedford @ Pioneer 800m 2:20.56 12th · 3rd on team 109.3 -0.028 PR SR
2019-04-05 Whitmer Golden W Invitational 1600m 5:10.53 5th · 1st on team 108.7 -0.040 PR SR
2019-04-04 Whitmer Freshman Invitational hj 5 -0.040
2019-04-04 Whitmer Freshman Invitational 3200m 11:11.16 1st · 1st on team 110.0 -0.040 PR SR
2019-03-23 Bedford @ Ida Scrimmage 1600m 5:10.65 5th · 4th on team 111.5 -0.022 PR SR RSR

2018 TF

Temperance Bedford (MI) · Grade 8

Date Meet Event Result Place Rating Difficulty PR/SR Flags
2018-05-16 Hornet MS Relays lj 16-08.25 -0.038

2017 TF 108.4

Temperance Bedford (MI) · Grade 7

Date Meet Event Result Place Rating Difficulty PR/SR Flags
2017-05-15 SEC MS: Mill Creek (Dexter) vs. Bedford lj 13-11.00 -0.036
2017-05-15 SEC MS: Mill Creek (Dexter) vs. Bedford 3200m 13:15.97 6th · 2nd on team 108.4 -0.036 PR SR RSR
2017-05-15 SEC MS: Mill Creek (Dexter) vs. Bedford 200m 27.58 3rd · 1st on team -0.036 ★PR SR